Time;durP1;ratioP1;P1;durP2;ratioP2;P2;SDS_P1;SDS_P2;PMS_P1;PMS_P2;Temp;Humidity;BMP_temperature;BMP_pressure;BME280_temperature;BME280_humidity;BME280_pressure;Samples;Min_cycle;Max_cycle;Signal;HPM_P1;HPM_P2
2022/05/02 00:01:48;;;;;;;7.25;6.68;;;10.80;99.90;;;;;;5026696;28;20470;-83
2022/05/02 00:04:13;;;;;;;7.45;6.85;;;10.70;99.90;;;;;;5032328;28;20856;-84
2022/05/02 00:06:39;;;;;;;7.10;6.60;;;10.70;99.90;;;;;;5032257;28;20391;-84
2022/05/02 00:09:05;;;;;;;7.10;6.60;;;10.90;99.90;;;;;;5032192;28;20482;-84
2022/05/02 00:11:30;;;;;;;7.77;7.07;;;10.90;99.90;;;;;;5025646;28;20398;-84
2022/05/02 00:13:56;;;;;;;7.50;6.80;;;10.70;99.90;;;;;;5032357;28;20748;-84
2022/05/02 00:16:21;;;;;;;7.90;7.20;;;10.60;99.90;;;;;;5032082;28;20535;-84
2022/05/02 00:18:47;;;;;;;8.10;7.25;;;10.50;99.90;;;;;;5014591;28;20818;-84
2022/05/02 00:21:13;;;;;;;7.97;7.38;;;10.40;99.90;;;;;;5028157;28;20379;-84
2022/05/02 00:23:38;;;;;;;7.95;7.35;;;10.60;99.90;;;;;;5029089;28;20913;-84
2022/05/02 00:26:04;;;;;;;8.50;7.90;;;10.50;99.90;;;;;;5012287;28;20397;-84
2022/05/02 00:28:29;;;;;;;8.40;7.60;;;10.50;99.90;;;;;;5031834;28;20456;-84
2022/05/02 00:30:55;;;;;;;9.07;8.37;;;10.40;99.90;;;;;;5032771;28;20395;-84
2022/05/02 00:33:21;;;;;;;9.30;8.60;;;10.50;99.90;;;;;;5032680;28;20383;-85
2022/05/02 00:35:46;;;;;;;10.80;10.00;;;10.30;99.90;;;;;;5032596;28;20453;-84
2022/05/02 00:38:12;;;;;;;11.33;10.40;;;10.20;99.90;;;;;;5032187;28;20419;-84
2022/05/02 00:40:38;;;;;;;11.60;10.70;;;10.00;99.90;;;;;;5032355;28;20407;-84
2022/05/02 00:43:04;;;;;;;12.50;11.50;;;10.00;99.90;;;;;;5032562;28;20767;-84
2022/05/02 00:45:37;;;;;;;12.18;11.25;;;10.10;99.90;;;;;;5034931;28;20399;-84
2022/05/02 00:48:03;;;;;;;11.73;10.90;;;10.00;99.90;;;;;;5036071;28;20386;-84
2022/05/02 00:50:42;;;;;;;11.43;10.53;;;10.00;99.90;;;;;;5024777;28;20390;-84
2022/05/02 00:53:11;;;;;;;11.43;10.63;;;10.00;99.90;;;;;;5028407;28;20387;-84
2022/05/02 00:55:37;;;;;;;9.53;8.93;;;10.10;99.90;;;;;;5035453;28;20570;-84
2022/05/02 00:58:04;;;;;;;8.93;8.23;;;10.20;99.90;;;;;;5035496;28;20484;-83
2022/05/02 01:00:32;;;;;;;9.70;9.05;;;10.30;99.90;;;;;;5035573;28;20409;-84
2022/05/02 01:02:58;;;;;;;9.07;8.48;;;10.30;99.90;;;;;;5035485;28;20867;-84
2022/05/02 01:05:23;;;;;;;9.57;8.88;;;10.30;99.90;;;;;;5035419;28;20390;-84
2022/05/02 01:07:49;;;;;;;9.93;9.07;;;10.10;99.90;;;;;;5034217;28;20387;-84
2022/05/02 01:10:17;;;;;;;10.30;9.50;;;10.20;99.90;;;;;;5035417;28;20429;-84
2022/05/02 01:12:52;;;;;;;10.20;9.30;;;10.00;99.90;;;;;;5035331;28;20815;-84
2022/05/02 01:15:18;;;;;;;10.18;9.48;;;10.20;99.90;;;;;;5035313;28;20403;-84
2022/05/02 01:17:44;;;;;;;9.70;8.93;;;10.00;99.90;;;;;;5035318;28;20883;-84
2022/05/02 01:20:14;;;;;;;10.80;10.00;;;9.90;99.90;;;;;;5033963;28;20449;-84
2022/05/02 01:22:42;;;;;;;10.45;9.65;;;9.80;99.90;;;;;;5035396;28;20461;-84
2022/05/02 01:25:08;;;;;;;10.63;9.93;;;10.30;99.90;;;;;;5035002;28;20484;-84
2022/05/02 01:27:34;;;;;;;11.27;10.40;;;9.80;99.90;;;;;;5035077;28;20395;-84
2022/05/02 01:30:00;;;;;;;11.10;10.30;;;9.80;99.90;;;;;;5035267;28;20399;-84
2022/05/02 01:32:25;;;;;;;11.10;10.30;;;9.70;99.90;;;;;;5015770;28;20411;-85
2022/05/02 01:34:51;;;;;;;11.20;10.23;;;9.90;99.90;;;;;;5018317;28;20455;-85
2022/05/02 01:37:16;;;;;;;11.10;10.30;;;9.80;99.90;;;;;;5032913;28;20848;-84
2022/05/02 01:39:42;;;;;;;11.15;10.15;;;9.90;99.90;;;;;;5033273;28;20438;-84
2022/05/02 01:42:10;;;;;;;11.52;10.73;;;9.80;99.90;;;;;;5034269;28;20398;-84
2022/05/02 01:44:36;;;;;;;11.48;10.68;;;9.60;99.90;;;;;;5034877;28;20379;-84
2022/05/02 01:47:03;;;;;;;11.50;10.70;;;9.70;99.90;;;;;;5034723;28;20748;-84
2022/05/02 01:49:28;;;;;;;10.70;9.90;;;9.70;99.90;;;;;;5025544;28;20396;-84
2022/05/02 01:51:54;;;;;;;11.67;10.77;;;9.60;99.90;;;;;;5031372;28;20794;-84
2022/05/02 01:54:19;;;;;;;10.53;9.73;;;9.90;99.90;;;;;;5034501;28;20393;-84
2022/05/02 01:56:45;;;;;;;11.23;10.37;;;9.50;99.90;;;;;;5033584;28;20494;-84
2022/05/02 01:59:11;;;;;;;11.00;10.20;;;9.30;99.90;;;;;;5034444;28;20479;-84
2022/05/02 02:01:37;;;;;;;10.93;10.13;;;9.50;99.90;;;;;;5023196;28;20372;-84
2022/05/02 02:06:50;;;;;;;10.77;9.97;;;9.60;99.90;;;;;;5034756;28;20747;-84
2022/05/02 02:09:16;;;;;;;10.57;9.73;;;10.00;99.90;;;;;;5034311;28;20430;-84
2022/05/02 02:11:42;;;;;;;10.67;9.87;;;9.40;99.90;;;;;;5034255;28;20394;-84
2022/05/02 02:14:08;;;;;;;10.93;10.02;;;9.80;99.90;;;;;;5034203;28;20490;-84
2022/05/02 02:16:33;;;;;;;11.13;10.32;;;9.30;99.90;;;;;;5033995;28;20408;-84
2022/05/02 02:18:59;;;;;;;11.03;10.13;;;9.30;99.90;;;;;;5034230;28;20443;-84
2022/05/02 02:21:24;;;;;;;11.27;10.48;;;9.20;99.90;;;;;;5025057;28;20380;-85
2022/05/02 02:23:50;;;;;;;11.57;10.63;;;9.00;99.90;;;;;;5023563;28;20392;-84
2022/05/02 02:26:16;;;;;;;11.13;10.32;;;9.20;99.90;;;;;;5033910;28;20929;-84
2022/05/02 02:28:41;;;;;;;11.60;10.75;;;9.00;99.90;;;;;;5017942;28;20446;-84
2022/05/02 02:31:07;;;;;;;11.43;10.53;;;9.20;99.90;;;;;;5027643;28;20922;-85
2022/05/02 02:33:33;;;;;;;12.63;11.63;;;8.90;99.90;;;;;;5033857;28;20552;-84
2022/05/02 02:35:59;;;;;;;12.73;11.83;;;8.90;99.90;;;;;;5033863;28;20486;-84
2022/05/02 02:38:25;;;;;;;13.20;12.30;;;9.00;99.90;;;;;;5033824;28;20413;-84
2022/05/02 02:40:51;;;;;;;13.02;12.02;;;9.00;99.90;;;;;;5033898;28;20383;-84
2022/05/02 02:43:17;;;;;;;13.30;12.40;;;9.00;99.90;;;;;;5033704;28;20425;-84
2022/05/02 02:45:43;;;;;;;13.63;12.63;;;9.00;99.90;;;;;;5033690;28;20387;-85
2022/05/02 02:48:09;;;;;;;12.98;11.98;;;9.20;99.90;;;;;;5033763;28;20477;-84
2022/05/02 02:50:34;;;;;;;13.43;12.43;;;9.10;99.90;;;;;;5025036;28;20991;-84
2022/05/02 02:53:00;;;;;;;13.73;12.73;;;9.30;99.90;;;;;;5021555;28;20385;-84
2022/05/02 02:55:27;;;;;;;14.18;12.90;;;9.20;99.90;;;;;;5029782;28;20933;-84
2022/05/02 02:57:52;;;;;;;13.75;12.75;;;9.20;99.90;;;;;;5033445;28;20387;-84
2022/05/02 03:00:18;;;;;;;14.35;13.15;;;9.40;99.90;;;;;;5033392;28;20398;-85
2022/05/02 03:02:44;;;;;;;13.65;12.65;;;9.20;99.90;;;;;;5033412;28;20387;-85
2022/05/02 03:07:56;;;;;;;13.90;12.70;;;9.00;99.90;;;;;;5032190;28;20386;-84
2022/05/02 03:10:22;;;;;;;14.70;13.47;;;9.10;99.90;;;;;;5033418;28;20472;-85
2022/05/02 03:12:48;;;;;;;13.60;12.60;;;9.00;99.90;;;;;;5033472;28;20726;-84
2022/05/02 03:15:13;;;;;;;14.80;13.60;;;8.90;99.90;;;;;;5033165;28;20413;-84
2022/05/02 03:17:39;;;;;;;14.70;13.37;;;9.00;99.90;;;;;;5033070;28;20383;-84
2022/05/02 03:20:06;;;;;;;14.63;13.57;;;8.50;99.90;;;;;;5031831;28;20906;-84
2022/05/02 03:22:31;;;;;;;15.40;14.20;;;8.60;99.90;;;;;;5033052;28;20427;-84
2022/05/02 03:24:57;;;;;;;15.43;14.23;;;8.70;99.90;;;;;;5033092;28;20413;-84
2022/05/02 03:27:23;;;;;;;14.90;13.83;;;8.70;99.90;;;;;;5032953;28;20390;-84
2022/05/02 03:29:48;;;;;;;15.50;14.27;;;8.90;99.90;;;;;;5032966;28;20841;-84
2022/05/02 03:32:14;;;;;;;15.00;13.87;;;8.70;99.90;;;;;;5032891;28;20386;-84
2022/05/02 03:34:39;;;;;;;15.10;14.00;;;8.70;99.90;;;;;;5032973;28;20379;-84
2022/05/02 03:37:05;;;;;;;15.00;13.90;;;8.80;99.90;;;;;;5032742;28;20433;-84
2022/05/02 03:39:31;;;;;;;15.23;13.93;;;8.70;99.90;;;;;;5022185;28;20438;-84
2022/05/02 03:41:56;;;;;;;15.23;14.13;;;8.70;99.90;;;;;;5004276;28;20391;-84
2022/05/02 03:44:22;;;;;;;15.30;13.90;;;8.80;99.90;;;;;;5006557;28;20747;-85
2022/05/02 03:46:47;;;;;;;15.15;13.95;;;8.80;99.90;;;;;;5001657;28;20894;-84
2022/05/02 03:49:13;;;;;;;15.40;14.30;;;8.80;99.90;;;;;;5027590;28;20396;-84
2022/05/02 03:51:39;;;;;;;15.32;14.02;;;8.80;99.90;;;;;;5024417;28;20883;-84
2022/05/02 03:54:04;;;;;;;15.60;14.40;;;8.80;99.90;;;;;;5030764;28;20383;-85
2022/05/02 03:56:30;;;;;;;14.73;13.63;;;8.70;99.90;;;;;;5030565;28;20438;-84
2022/05/02 03:58:56;;;;;;;15.18;13.98;;;8.80;99.90;;;;;;5026448;28;20484;-84
2022/05/02 04:01:23;;;;;;;15.45;14.30;;;8.70;99.90;;;;;;5013038;28;20389;-84
2022/05/02 04:03:49;;;;;;;14.90;13.80;;;8.80;99.90;;;;;;5029099;28;20414;-84
2022/05/02 04:06:15;;;;;;;15.05;13.85;;;8.80;99.90;;;;;;5033325;28;20395;-85
2022/05/02 04:08:41;;;;;;;15.80;14.57;;;8.80;99.90;;;;;;5032978;28;20387;-85
2022/05/02 04:11:06;;;;;;;14.80;13.70;;;8.70;99.90;;;;;;5032316;28;20865;-84
2022/05/02 04:13:32;;;;;;;15.13;13.97;;;8.70;99.90;;;;;;5020081;28;20761;-84
2022/05/02 04:15:57;;;;;;;15.37;14.17;;;8.50;99.90;;;;;;5031128;28;20430;-85
2022/05/02 04:18:23;;;;;;;14.30;13.20;;;8.60;99.90;;;;;;5032878;28;20379;-85
2022/05/02 04:20:49;;;;;;;14.33;13.13;;;8.70;99.90;;;;;;5032746;28;20378;-84
2022/05/02 04:23:14;;;;;;;14.18;13.07;;;8.80;99.90;;;;;;5032767;28;20411;-85
2022/05/02 04:25:40;;;;;;;14.07;12.98;;;8.90;99.90;;;;;;5032406;28;20429;-84
2022/05/02 04:28:07;;;;;;;14.00;12.70;;;9.40;99.90;;;;;;5032448;28;20387;-84
2022/05/02 04:30:34;;;;;;;14.20;13.10;;;8.90;99.90;;;;;;5026629;28;20384;-84
2022/05/02 04:33:01;;;;;;;13.73;12.63;;;8.80;99.90;;;;;;5027441;28;20424;-84
2022/05/02 04:35:27;;;;;;;14.85;13.75;;;8.80;99.90;;;;;;5031977;28;20473;-84
2022/05/02 04:37:52;;;;;;;14.70;13.47;;;8.40;99.90;;;;;;5032123;28;20383;-84
2022/05/02 04:40:18;;;;;;;14.23;13.10;;;8.40;99.90;;;;;;5026892;28;20934;-84
2022/05/02 04:42:44;;;;;;;14.23;13.13;;;8.60;99.90;;;;;;5006924;28;20449;-84
2022/05/02 04:45:10;;;;;;;14.27;13.27;;;8.70;99.90;;;;;;5011570;28;20410;-84
2022/05/02 04:47:35;;;;;;;14.70;13.30;;;8.80;99.90;;;;;;5018535;28;20884;-84
2022/05/02 04:50:01;;;;;;;14.30;13.13;;;8.90;99.90;;;;;;5013895;28;20395;-84
2022/05/02 04:52:26;;;;;;;13.90;12.80;;;9.00;99.90;;;;;;5031959;28;20389;-84
2022/05/02 04:54:52;;;;;;;15.00;13.77;;;8.90;99.90;;;;;;5025663;28;20807;-84
2022/05/02 04:57:18;;;;;;;14.93;13.83;;;9.00;99.90;;;;;;5031757;28;20387;-85
2022/05/02 04:59:43;;;;;;;15.40;14.20;;;9.30;99.90;;;;;;5031800;28;20399;-84
2022/05/02 05:02:09;;;;;;;15.38;14.07;;;8.70;99.90;;;;;;5019387;28;20422;-84
2022/05/02 05:04:35;;;;;;;14.70;13.60;;;8.80;99.90;;;;;;5025990;28;20746;-81
2022/05/02 05:07:01;;;;;;;14.80;13.60;;;8.90;99.90;;;;;;5014157;28;20393;-81
2022/05/02 05:09:26;;;;;;;15.10;13.90;;;9.00;99.90;;;;;;5031779;28;20395;-81
2022/05/02 05:12:26;;;;;;;14.83;13.63;;;9.00;99.90;;;;;;5019998;28;20492;-80
2022/05/02 05:18:01;;;;;;;13.80;12.70;;;9.10;99.90;;;;;;5031889;28;20382;-81
2022/05/02 05:20:51;;;;;;;15.38;13.98;;;9.20;99.90;;;;;;5027894;28;20404;-80
2022/05/02 05:23:28;;;;;;;15.13;13.93;;;9.30;99.90;;;;;;5011872;28;20473;-79
2022/05/02 05:26:15;;;;;;;14.50;13.40;;;9.30;99.90;;;;;;5019750;28;20397;-80
2022/05/02 05:28:50;;;;;;;16.15;14.93;;;9.30;99.90;;;;;;5006689;28;20448;-80
2022/05/02 05:31:24;;;;;;;15.18;13.88;;;9.30;99.90;;;;;;5022581;28;20396;-80
2022/05/02 05:34:08;;;;;;;14.88;13.68;;;9.40;99.90;;;;;;5023083;28;20395;-79
2022/05/02 05:37:11;;;;;;;15.15;13.95;;;9.40;99.90;;;;;;5017504;28;20462;-79
2022/05/02 05:39:52;;;;;;;15.00;13.70;;;9.40;99.90;;;;;;5013321;28;20943;-79
2022/05/02 05:42:39;;;;;;;14.55;13.45;;;9.40;99.90;;;;;;5011940;28;20392;-79
2022/05/02 05:45:15;;;;;;;15.07;13.80;;;9.50;99.90;;;;;;5018533;28;20388;-79
2022/05/02 05:48:14;;;;;;;15.32;14.02;;;9.60;99.90;;;;;;5019792;28;20758;-79
2022/05/02 05:50:50;;;;;;;15.80;14.50;;;9.70;99.90;;;;;;5017576;28;20395;-79
2022/05/02 05:53:22;;;;;;;14.90;13.77;;;9.80;99.90;;;;;;5013910;28;21158;-82
2022/05/02 05:56:06;;;;;;;15.65;14.45;;;9.80;99.90;;;;;;5031140;23;20579;-83
2022/05/02 05:59:06;;;;;;;15.60;14.40;;;9.70;99.90;;;;;;5013573;28;20377;-83
2022/05/02 06:01:32;;;;;;;15.70;14.50;;;9.90;99.90;;;;;;5011775;28;20502;-83
2022/05/02 06:04:03;;;;;;;14.88;13.68;;;9.90;99.90;;;;;;5013591;28;20413;-82
2022/05/02 06:06:29;;;;;;;15.80;14.40;;;10.10;99.90;;;;;;5004824;28;20717;-81
2022/05/02 06:08:58;;;;;;;16.45;15.02;;;10.10;99.90;;;;;;5006185;28;20400;-82
2022/05/02 06:11:28;;;;;;;16.60;15.13;;;10.20;99.90;;;;;;4999204;28;20401;-83
2022/05/02 06:13:56;;;;;;;16.55;15.25;;;10.20;99.90;;;;;;4995780;28;20407;-83
2022/05/02 06:19:17;;;;;;;17.02;15.52;;;10.30;99.90;;;;;;5009243;28;20385;-82
2022/05/02 06:21:46;;;;;;;16.67;15.38;;;10.30;99.90;;;;;;5007865;28;20397;-83
2022/05/02 06:24:13;;;;;;;18.48;16.85;;;10.50;99.90;;;;;;5007325;28;20388;-83
2022/05/02 06:26:40;;;;;;;16.80;15.50;;;10.40;99.90;;;;;;5012221;28;20431;-84
2022/05/02 06:29:10;;;;;;;18.27;16.73;;;10.40;99.90;;;;;;5010311;28;20396;-84
2022/05/02 06:31:37;;;;;;;18.23;16.65;;;10.40;99.90;;;;;;5010635;28;20411;-84
2022/05/02 06:34:04;;;;;;;17.75;16.35;;;10.50;99.90;;;;;;5012142;28;20866;-83
2022/05/02 06:36:48;;;;;;;18.17;16.60;;;10.50;99.90;;;;;;5011628;28;20409;-84
2022/05/02 06:39:35;;;;;;;19.53;17.73;;;10.40;99.90;;;;;;5012865;28;20435;-84
2022/05/02 06:42:12;;;;;;;17.90;16.40;;;10.40;99.90;;;;;;5007378;28;20394;-85
2022/05/02 06:45:07;;;;;;;18.95;17.30;;;10.60;99.90;;;;;;5007245;28;20396;-84
2022/05/02 06:48:01;;;;;;;19.43;17.63;;;10.70;99.90;;;;;;5013208;28;20399;-87
2022/05/02 06:50:31;;;;;;;19.47;17.87;;;10.70;99.90;;;;;;4981671;28;20459;-88
2022/05/02 06:53:15;;;;;;;19.85;18.15;;;11.00;99.90;;;;;;5013326;28;20401;-88
2022/05/02 06:55:58;;;;;;;21.85;19.70;;;11.00;99.90;;;;;;5013381;28;20426;-85
2022/05/02 06:58:48;;;;;;;20.10;18.40;;;11.00;99.90;;;;;;5013657;28;20480;-84
2022/05/02 07:01:26;;;;;;;21.63;19.83;;;10.90;99.90;;;;;;5013854;28;20416;-87
2022/05/02 07:03:54;;;;;;;20.42;18.65;;;10.90;99.90;;;;;;5013355;28;20395;-88
2022/05/02 07:06:43;;;;;;;19.30;17.60;;;11.00;99.90;;;;;;5013460;28;20972;-88
2022/05/02 07:09:13;;;;;;;21.67;19.60;;;11.20;99.90;;;;;;5013422;28;20397;-87
2022/05/02 07:12:00;;;;;;;20.55;18.75;;;11.10;99.90;;;;;;5013404;28;20488;-87
2022/05/02 07:14:38;;;;;;;20.25;18.45;;;11.20;99.90;;;;;;5013469;28;20423;-88
2022/05/02 07:17:11;;;;;;;21.88;19.95;;;11.40;99.90;;;;;;5013386;28;20444;-88
2022/05/02 07:19:58;;;;;;;21.77;19.80;;;11.40;99.90;;;;;;5013463;28;20738;-88
2022/05/02 07:22:35;;;;;;;22.30;20.27;;;11.30;99.90;;;;;;5013576;28;20504;-87
2022/05/02 07:25:11;;;;;;;21.58;19.67;;;11.40;99.90;;;;;;5013148;28;20385;-87
2022/05/02 07:27:49;;;;;;;22.45;20.25;;;11.50;99.90;;;;;;5013340;28;20381;-87
2022/05/02 07:30:17;;;;;;;20.60;18.70;;;11.60;99.90;;;;;;5013224;28;20376;-88
2022/05/02 07:32:44;;;;;;;21.33;19.40;;;11.90;99.90;;;;;;5013138;28;20380;-87
2022/05/02 07:35:10;;;;;;;20.83;18.93;;;11.70;99.90;;;;;;5012863;28;20451;-87
2022/05/02 07:37:38;;;;;;;21.20;19.20;;;11.90;99.90;;;;;;5013233;28;20389;-87
2022/05/02 07:40:05;;;;;;;23.00;20.73;;;12.20;99.90;;;;;;5012999;28;20385;-87
2022/05/02 07:42:32;;;;;;;22.25;20.05;;;12.10;99.90;;;;;;5013153;28;20393;-88
2022/05/02 07:45:00;;;;;;;22.17;20.13;;;11.90;99.90;;;;;;5010290;28;20752;-87
2022/05/02 07:47:31;;;;;;;21.63;19.73;;;12.00;99.90;;;;;;5011745;28;20397;-88
2022/05/02 07:49:57;;;;;;;21.23;19.33;;;12.20;99.90;;;;;;5012822;28;20885;-87
2022/05/02 07:52:25;;;;;;;21.92;19.83;;;12.50;99.90;;;;;;5012855;28;20397;-87
2022/05/02 07:54:52;;;;;;;22.23;20.13;;;12.60;99.90;;;;;;5012169;28;20754;-88
2022/05/02 07:57:20;;;;;;;21.10;19.20;;;12.50;99.90;;;;;;5012723;28;20396;-87
2022/05/02 07:59:54;;;;;;;20.75;18.77;;;12.70;99.90;;;;;;5012358;28;20384;-87
2022/05/02 08:02:21;;;;;;;20.90;19.05;;;12.90;99.90;;;;;;5012612;28;20409;-88
2022/05/02 08:04:47;;;;;;;21.90;19.80;;;12.90;99.90;;;;;;5013053;28;20739;-87
2022/05/02 08:07:42;;;;;;;21.48;19.30;;;12.90;99.90;;;;;;5013091;28;20392;-88
2022/05/02 08:10:45;;;;;;;17.27;15.88;;;12.70;99.90;;;;;;5013513;28;20742;-88
2022/05/02 08:13:17;;;;;;;16.98;15.40;;;13.00;99.90;;;;;;5012447;28;20389;-88
2022/05/02 08:16:05;;;;;;;15.85;14.57;;;13.40;99.90;;;;;;5012360;28;20413;-86
2022/05/02 08:18:50;;;;;;;16.85;15.45;;;13.50;99.90;;;;;;5012712;28;20377;-88
2022/05/02 08:21:32;;;;;;;16.02;14.73;;;13.70;99.90;;;;;;5012509;28;20407;-87
2022/05/02 08:27:27;;;;;;;16.25;14.95;;;13.90;99.90;;;;;;5001334;28;20391;-87
2022/05/02 08:30:06;;;;;;;16.55;15.15;;;13.90;99.90;;;;;;5010652;28;20389;-88
2022/05/02 08:32:40;;;;;;;15.07;13.73;;;13.90;99.90;;;;;;5012545;28;20389;-87
2022/05/02 08:35:11;;;;;;;15.70;14.25;;;14.10;99.90;;;;;;5012262;28;20443;-88
2022/05/02 08:37:49;;;;;;;15.95;14.65;;;14.20;99.90;;;;;;5012432;28;20384;-88
2022/05/02 08:40:24;;;;;;;14.82;13.52;;;14.10;99.90;;;;;;5012896;28;20407;-88
2022/05/02 08:43:15;;;;;;;14.75;13.57;;;14.40;99.90;;;;;;5012210;28;20435;-88
2022/05/02 08:46:18;;;;;;;15.05;13.93;;;14.50;99.90;;;;;;5000069;28;20523;-87
2022/05/02 08:49:35;;;;;;;14.65;13.55;;;14.70;99.90;;;;;;5011172;28;20405;-85
2022/05/02 08:52:19;;;;;;;14.43;13.32;;;14.70;99.90;;;;;;5010135;28;20415;-86
2022/05/02 08:55:06;;;;;;;13.65;12.65;;;14.80;99.90;;;;;;5012051;28;20809;-87
2022/05/02 08:58:09;;;;;;;14.02;12.93;;;14.90;99.90;;;;;;5012297;28;20389;-85
2022/05/02 09:00:37;;;;;;;14.07;12.97;;;15.00;99.90;;;;;;5011992;28;20384;-86
2022/05/02 09:03:30;;;;;;;14.23;13.13;;;15.00;99.90;;;;;;5002191;28;20454;-87
2022/05/02 09:06:18;;;;;;;15.98;14.05;;;15.10;99.90;;;;;;5001013;28;20410;-86
2022/05/02 09:09:06;;;;;;;16.15;14.52;;;15.30;99.90;;;;;;5011275;28;20392;-86
2022/05/02 09:11:51;;;;;;;13.88;12.63;;;15.40;99.90;;;;;;5014725;28;20467;-87
2022/05/02 09:14:48;;;;;;;13.47;12.37;;;15.50;99.90;;;;;;5014661;28;20440;-88
2022/05/02 09:17:35;;;;;;;11.68;10.70;;;15.60;99.90;;;;;;5012782;28;20408;-88
2022/05/02 09:20:01;;;;;;;10.85;9.90;;;15.90;99.90;;;;;;5013129;28;20873;-88
2022/05/02 09:22:41;;;;;;;10.48;9.57;;;16.10;99.90;;;;;;5012792;28;20388;-87
2022/05/02 09:25:10;;;;;;;11.77;10.88;;;16.20;99.90;;;;;;5013592;28;21167;-87
2022/05/02 09:27:57;;;;;;;9.13;8.40;;;16.40;99.90;;;;;;5014081;28;20392;-86
2022/05/02 09:31:00;;;;;;;9.32;8.63;;;16.50;99.90;;;;;;5015500;28;20381;-86
2022/05/02 09:33:29;;;;;;;10.80;10.00;;;16.50;99.90;;;;;;5012879;28;20388;-88
2022/05/02 09:36:05;;;;;;;10.57;9.85;;;16.70;99.90;;;;;;5010189;28;20448;-88
2022/05/02 09:39:01;;;;;;;11.00;10.20;;;16.90;99.90;;;;;;5013342;28;20396;-88
2022/05/02 09:41:37;;;;;;;11.27;10.18;;;17.10;99.90;;;;;;5014412;28;20385;-89
2022/05/02 09:50:45;;;;;;;11.88;10.98;;;17.20;99.90;;;;;;5012592;28;20411;-88
2022/05/02 09:53:33;;;;;;;11.10;10.30;;;17.30;99.90;;;;;;5014878;28;20389;-88
2022/05/02 09:56:42;;;;;;;10.27;9.57;;;17.50;99.90;;;;;;5013768;28;20828;-89
2022/05/02 09:59:15;;;;;;;11.35;10.55;;;17.70;99.90;;;;;;4994116;28;20576;-88
2022/05/02 10:01:51;;;;;;;10.65;9.77;;;17.90;99.90;;;;;;5013720;28;20463;-89
2022/05/02 10:04:47;;;;;;;10.05;9.35;;;17.90;99.90;;;;;;5010572;28;20427;-88
2022/05/02 10:07:18;;;;;;;10.63;9.82;;;18.10;99.90;;;;;;5009860;28;20386;-88
2022/05/02 10:10:03;;;;;;;10.68;9.88;;;18.20;99.90;;;;;;4995521;28;20417;-88
2022/05/02 10:12:49;;;;;;;9.70;8.97;;;18.40;99.90;;;;;;4996711;28;20389;-88
2022/05/02 10:15:20;;;;;;;9.70;8.95;;;18.30;99.90;;;;;;5006875;28;20397;-88
2022/05/02 10:18:04;;;;;;;10.38;9.57;;;18.50;99.90;;;;;;5003142;28;20413;-88
2022/05/02 10:20:45;;;;;;;10.30;9.50;;;18.40;99.90;;;;;;5001733;28;20520;-88
2022/05/02 10:23:38;;;;;;;9.93;9.25;;;17.90;99.90;;;;;;4997535;28;20382;-88
2022/05/02 10:26:16;;;;;;;9.80;9.10;;;18.10;99.90;;;;;;4999118;28;20382;-88
2022/05/02 10:29:12;;;;;;;9.55;8.85;;;18.40;99.90;;;;;;5004436;28;20382;-88
2022/05/02 10:31:39;;;;;;;9.30;8.60;;;18.70;99.90;;;;;;5006373;28;20392;-88
2022/05/02 10:34:05;;;;;;;9.05;8.35;;;18.80;99.90;;;;;;4995527;28;20387;-89
2022/05/02 10:36:39;;;;;;;8.13;7.53;;;18.60;99.90;;;;;;4996980;28;20410;-89
2022/05/02 10:39:27;;;;;;;9.27;8.57;;;18.80;99.90;;;;;;4994798;28;20469;-88
2022/05/02 10:41:58;;;;;;;9.52;8.82;;;18.80;99.90;;;;;;5006784;28;20382;-88
2022/05/02 10:44:28;;;;;;;9.15;8.55;;;18.70;99.90;;;;;;4994133;28;20391;-88
2022/05/02 10:47:02;;;;;;;9.15;8.50;;;18.80;99.90;;;;;;5009833;28;20722;-87
2022/05/02 10:49:30;;;;;;;9.40;8.70;;;19.00;99.90;;;;;;5009129;28;20576;-88
2022/05/02 10:52:35;;;;;;;8.95;8.25;;;19.10;99.90;;;;;;5000229;28;20393;-88
2022/05/02 10:55:05;;;;;;;7.80;7.20;;;19.10;99.90;;;;;;4988126;28;20952;-88
2022/05/02 10:57:38;;;;;;;8.30;7.70;;;19.20;99.90;;;;;;4999719;28;20963;-87
2022/05/02 11:00:06;;;;;;;7.82;7.22;;;19.30;99.90;;;;;;5013196;28;20395;-88
2022/05/02 11:02:32;;;;;;;7.40;6.90;;;19.20;99.90;;;;;;5013746;28;20377;-88
2022/05/02 11:05:31;;;;;;;6.90;6.40;;;19.20;99.90;;;;;;5029143;28;20388;-87
2022/05/02 11:07:56;;;;;;;6.80;6.30;;;19.20;99.90;;;;;;5012452;28;20389;-87
2022/05/02 11:10:27;;;;;;;6.88;6.38;;;19.10;99.90;;;;;;5013503;28;20435;-87
2022/05/02 11:13:01;;;;;;;6.07;5.57;;;18.80;99.90;;;;;;5013518;28;20428;-87
2022/05/02 11:15:38;;;;;;;6.10;5.60;;;18.80;99.90;;;;;;5013367;28;20419;-87
2022/05/02 11:21:55;;;;;;;5.85;5.45;;;18.60;99.90;;;;;;4971959;28;20432;-87
2022/05/02 11:24:24;;;;;;;6.07;5.60;;;18.70;99.90;;;;;;4972249;28;20400;-88
2022/05/02 11:27:31;;;;;;;6.90;6.30;;;19.10;99.90;;;;;;4993712;28;20392;-86
2022/05/02 11:30:09;;;;;;;6.28;5.78;;;19.10;99.90;;;;;;5000853;28;20393;-87
2022/05/02 11:33:00;;;;;;;5.80;5.40;;;19.30;99.90;;;;;;5010031;28;20396;-87
2022/05/02 11:35:31;;;;;;;6.15;5.65;;;19.40;99.90;;;;;;5012839;28;20451;-87
2022/05/02 11:38:25;;;;;;;7.07;6.47;;;19.50;99.90;;;;;;5012184;28;20404;-87
2022/05/02 11:41:05;;;;;;;7.20;6.60;;;19.70;99.90;;;;;;5026356;28;20874;-88
2022/05/02 11:43:36;;;;;;;6.13;5.72;;;19.80;99.90;;;;;;5023714;28;20421;-87
2022/05/02 11:46:10;;;;;;;5.90;5.50;;;20.10;99.90;;;;;;5007611;28;20484;-87
2022/05/02 11:48:41;;;;;;;6.63;6.13;;;19.90;99.90;;;;;;4995424;28;20397;-87
2022/05/02 11:51:07;;;;;;;6.22;5.72;;;19.90;99.90;;;;;;5001868;28;20394;-87
2022/05/02 11:53:35;;;;;;;6.70;6.20;;;19.90;99.90;;;;;;4995320;28;20390;-87
2022/05/02 11:56:06;;;;;;;6.78;6.28;;;20.00;99.90;;;;;;5008447;28;20890;-87
2022/05/02 11:58:36;;;;;;;6.43;5.93;;;20.10;99.90;;;;;;5005579;28;20472;-87
2022/05/02 12:01:04;;;;;;;5.70;5.30;;;20.00;99.90;;;;;;4991934;28;20481;-87
2022/05/02 12:03:59;;;;;;;6.60;6.10;;;20.10;99.90;;;;;;4993413;28;20390;-87
2022/05/02 12:06:41;;;;;;;7.75;7.03;;;20.30;99.90;;;;;;5006261;28;20394;-88
2022/05/02 12:09:22;;;;;;;6.65;6.15;;;20.20;99.90;;;;;;4996856;28;20418;-87
2022/05/02 12:11:56;;;;;;;6.80;6.20;;;20.20;99.90;;;;;;5002089;28;20748;-87
2022/05/02 12:14:23;;;;;;;6.18;5.68;;;20.20;99.90;;;;;;5006891;28;20393;-87
2022/05/02 12:17:09;;;;;;;6.53;6.10;;;20.30;99.90;;;;;;4993578;28;20414;-88
2022/05/02 12:19:36;;;;;;;5.65;5.25;;;20.20;99.90;;;;;;4997494;28;20383;-88
2022/05/02 12:22:28;;;;;;;4.80;4.50;;;20.40;99.90;;;;;;5002038;28;20860;-88
2022/05/02 12:25:03;;;;;;;5.60;5.20;;;20.60;99.90;;;;;;5001730;28;20409;-88
2022/05/02 12:27:31;;;;;;;5.28;4.93;;;20.60;99.90;;;;;;4991928;28;20390;-88
2022/05/02 12:30:00;;;;;;;6.70;6.20;;;20.80;99.90;;;;;;4991739;28;20469;-87
2022/05/02 12:32:30;;;;;;;6.10;5.33;;;20.80;99.90;;;;;;5008049;28;20409;-87
2022/05/02 12:34:57;;;;;;;5.50;5.10;;;20.80;99.90;;;;;;5007111;28;20925;-88
2022/05/02 12:37:30;;;;;;;5.30;5.00;;;21.00;99.90;;;;;;4992849;28;20440;-87
2022/05/02 12:40:13;;;;;;;5.10;4.70;;;20.90;99.90;;;;;;4994435;28;20752;-87
2022/05/02 12:42:47;;;;;;;4.70;4.40;;;20.60;99.90;;;;;;5002950;28;20458;-87
2022/05/02 12:45:15;;;;;;;5.17;4.77;;;20.60;99.90;;;;;;4997904;28;20387;-87
2022/05/02 12:47:48;;;;;;;4.93;4.63;;;20.30;99.90;;;;;;5006303;28;20390;-88
2022/05/02 12:50:20;;;;;;;4.72;4.40;;;20.30;99.90;;;;;;5010950;28;20414;-87
2022/05/02 12:52:51;;;;;;;4.90;4.50;;;20.30;99.90;;;;;;4996884;28;20390;-87
2022/05/02 12:55:19;;;;;;;5.38;4.97;;;20.50;99.90;;;;;;4997881;28;20409;-87
2022/05/02 13:00:41;;;;;;;5.53;5.10;;;20.50;99.90;;;;;;4996342;28;20440;-88
2022/05/02 13:03:10;;;;;;;5.15;4.75;;;20.40;99.90;;;;;;4997387;28;20382;-87
2022/05/02 13:05:39;;;;;;;5.97;5.47;;;20.20;99.90;;;;;;4995928;28;20417;-88
2022/05/02 13:08:11;;;;;;;4.75;4.40;;;20.40;99.90;;;;;;4998817;28;20394;-87
2022/05/02 13:10:39;;;;;;;4.50;4.20;;;20.20;99.90;;;;;;5003116;28;20546;-87
2022/05/02 13:13:11;;;;;;;3.67;3.40;;;20.00;99.90;;;;;;4996423;28;20461;-86
2022/05/02 13:15:36;;;;;;;4.13;3.83;;;20.00;99.90;;;;;;4999623;28;20442;-87
2022/05/02 13:18:17;;;;;;;3.77;3.47;;;20.00;99.90;;;;;;4998955;28;20963;-87
2022/05/02 13:20:55;;;;;;;4.40;4.10;;;19.90;99.90;;;;;;4996132;28;20383;-88
2022/05/02 13:23:22;;;;;;;4.03;3.72;;;20.00;99.90;;;;;;5004306;28;20387;-87
2022/05/02 13:25:59;;;;;;;4.30;3.90;;;20.20;99.90;;;;;;4995098;28;20395;-87
2022/05/02 13:28:33;;;;;;;4.88;4.47;;;20.20;99.90;;;;;;4995442;28;20386;-86
2022/05/02 13:31:07;;;;;;;3.88;3.58;;;20.10;99.90;;;;;;4999380;28;20401;-87
2022/05/02 13:33:36;;;;;;;4.07;3.78;;;20.00;99.90;;;;;;5000073;28;20409;-87
2022/05/02 13:36:05;;;;;;;4.05;3.75;;;19.90;99.90;;;;;;5001907;28;20433;-87